Time;durP1;ratioP1;P1;durP2;ratioP2;P2;SDS_P1;SDS_P2;PMS_P1;PMS_P2;Temp;Humidity;BMP_temperature;BMP_pressure;BME280_temperature;BME280_humidity;BME280_pressure;Samples;Min_cycle;Max_cycle;Signal;HPM_P1;HPM_P2
2020/12/31 09:03:43;;;;;;;14.00;11.20;;;;;;;0.18;99.27;97934.56;5241701;22;20529;-87
2020/12/31 09:06:11;;;;;;;13.73;11.53;;;;;;;0.79;100.00;97932.31;5109667;27;39302;-89
2020/12/31 09:08:48;;;;;;;11.87;10.10;;;;;;;1.23;100.00;97916.69;5109418;27;41664;-88
2020/12/31 09:11:25;;;;;;;10.97;9.63;;;;;;;1.66;98.92;97916.63;5109345;27;42815;-87
2020/12/31 09:13:52;;;;;;;11.33;9.20;;;;;;;2.00;97.02;97917.78;5192788;22;41775;-83
2020/12/31 09:16:19;;;;;;;11.03;8.90;;;;;;;2.30;94.63;97933.91;5200288;22;39275;-81
2020/12/31 09:18:57;;;;;;;9.87;8.67;;;;;;;2.50;92.82;97942.53;5068579;28;41570;-84
2020/12/31 09:21:28;;;;;;;10.20;8.20;;;;;;;2.69;91.54;97936.50;5068833;28;42638;-84
2020/12/31 09:23:55;;;;;;;9.23;8.33;;;;;;;2.87;90.88;97936.47;5084276;28;42700;-83
2020/12/31 09:29:00;;;;;;;8.33;7.50;;;;;;;3.29;88.76;97926.69;5082789;28;20241;-85
2020/12/31 09:31:27;;;;;;;8.60;7.70;;;;;;;3.46;87.84;97929.34;5047370;28;42436;-84
2020/12/31 09:33:56;;;;;;;9.23;8.30;;;;;;;3.59;86.17;97928.66;5046959;28;41147;-83
2020/12/31 09:36:25;;;;;;;8.87;7.13;;;;;;;3.76;86.45;97914.72;5064708;28;40147;-86
2020/12/31 09:38:53;;;;;;;8.43;7.00;;;;;;;3.88;84.91;97916.72;5157223;22;42168;-82
2020/12/31 09:41:20;;;;;;;9.63;7.40;;;;;;;3.98;83.69;97907.47;5067916;28;42831;-85
2020/12/31 09:43:50;;;;;;;7.80;6.37;;;;;;;4.11;79.88;97919.94;5083455;28;42193;-85
2020/12/31 09:46:18;;;;;;;7.70;6.90;;;;;;;4.17;80.43;97922.25;5084357;28;40087;-84
2020/12/31 09:48:45;;;;;;;6.90;6.20;;;;;;;4.12;80.07;97917.25;5068261;28;40629;-84
2020/12/31 09:51:13;;;;;;;7.00;6.03;;;;;;;4.18;79.23;97926.56;5155564;22;41537;-87
2020/12/31 09:53:41;;;;;;;6.80;6.13;;;;;;;4.23;80.20;97916.69;5068105;28;41981;-84
2020/12/31 09:56:08;;;;;;;6.83;6.00;;;;;;;4.30;78.30;97925.94;5084662;28;39973;-85
2020/12/31 09:58:35;;;;;;;8.77;6.20;;;;;;;4.36;76.70;97928.22;5068754;28;40658;-89
2020/12/31 10:01:04;;;;;;;7.73;7.00;;;;;;;4.43;76.10;97924.38;5067544;28;43934;-85
2020/12/31 10:03:31;;;;;;;7.43;6.63;;;;;;;4.47;74.62;97936.38;5149782;22;41301;-84
2020/12/31 10:05:58;;;;;;;6.90;6.20;;;;;;;4.45;75.02;97906.75;5080456;28;39888;-85
2020/12/31 10:08:27;;;;;;;7.40;5.90;;;;;;;4.59;75.98;97904.25;5064394;28;41763;-84
2020/12/31 10:10:54;;;;;;;6.60;5.90;;;;;;;4.66;75.35;97900.41;5063300;28;42807;-84
2020/12/31 10:13:21;;;;;;;5.93;5.37;;;;;;;4.67;73.93;97904.72;5151916;22;41083;-78
2020/12/31 10:15:48;;;;;;;5.77;5.17;;;;;;;4.75;74.35;97908.69;5068930;28;39741;-78
2020/12/31 10:18:16;;;;;;;7.17;6.37;;;;;;;4.76;74.91;97900.72;5069765;28;42109;-77
2020/12/31 10:20:43;;;;;;;7.00;6.37;;;;;;;4.72;73.26;97899.19;5069302;28;44163;-81
2020/12/31 10:23:10;;;;;;;8.53;7.47;;;;;;;4.77;74.34;97893.72;5072352;28;41512;-83
2020/12/31 10:25:38;;;;;;;11.17;9.13;;;;;;;4.80;73.71;97896.19;5143099;22;39982;-83
2020/12/31 10:28:05;;;;;;;8.03;5.70;;;;;;;4.67;73.51;97870.63;5034091;28;40872;-82
2020/12/31 10:30:33;;;;;;;5.90;5.30;;;;;;;4.77;73.51;97876.19;5033267;28;42960;-81
2020/12/31 10:33:00;;;;;;;6.70;5.60;;;;;;;4.92;72.28;97890.25;5033213;28;41371;-82
2020/12/31 10:35:27;;;;;;;6.87;5.67;;;;;;;4.87;70.20;97877.38;5033416;28;38876;-83
2020/12/31 10:37:54;;;;;;;6.70;5.57;;;;;;;4.96;71.52;97862.91;5135220;22;40408;-83
2020/12/31 10:40:22;;;;;;;6.37;5.37;;;;;;;5.02;69.91;97871.28;5053435;28;42826;-81
2020/12/31 10:42:50;;;;;;;6.10;5.50;;;;;;;5.10;69.29;97886.59;5068840;28;42218;-85
2020/12/31 10:45:17;;;;;;;5.97;5.37;;;;;;;5.03;69.24;97867.75;5051445;28;39102;-83
2020/12/31 10:47:44;;;;;;;6.70;5.47;;;;;;;5.18;69.80;97871.28;5050550;28;40142;-83
2020/12/31 10:50:11;;;;;;;7.17;6.37;;;;;;;5.21;69.08;97870.25;5135231;22;42080;-83
2020/12/31 10:52:38;;;;;;;6.33;5.30;;;;;;;5.28;69.30;97867.19;5069398;28;42408;-82
2020/12/31 10:55:05;;;;;;;7.13;6.13;;;;;;;5.36;69.32;97864.97;5049718;28;39815;-85
2020/12/31 10:57:33;;;;;;;6.97;5.90;;;;;;;5.46;69.21;97869.69;5058457;28;40975;-84
2020/12/31 11:00:01;;;;;;;6.30;5.70;;;;;;;5.51;68.46;97862.41;5121904;22;42054;-82
2020/12/31 11:02:28;;;;;;;6.23;5.53;;;;;;;5.60;68.80;97867.13;5051880;28;41159;-83
2020/12/31 11:04:55;;;;;;;7.17;5.97;;;;;;;5.55;67.21;97862.16;5051722;28;41136;-82
2020/12/31 11:07:23;;;;;;;6.23;5.33;;;;;;;5.67;68.01;97868.47;5069698;28;41933;-84
2020/12/31 11:09:50;;;;;;;6.50;5.90;;;;;;;5.60;66.59;97859.22;5068594;28;43256;-84
2020/12/31 11:12:17;;;;;;;6.37;5.40;;;;;;;5.56;66.69;97849.88;5152841;22;41715;-84
2020/12/31 11:14:44;;;;;;;6.37;5.63;;;;;;;5.60;67.12;97846.09;5033841;28;39029;-85
2020/12/31 11:17:12;;;;;;;6.37;5.77;;;;;;;5.66;66.84;97853.63;5050689;28;40423;-83
2020/12/31 11:19:39;;;;;;;7.10;6.17;;;;;;;5.72;66.88;97855.88;5033706;28;41877;-78
2020/12/31 11:22:08;;;;;;;7.43;5.60;;;;;;;5.87;66.94;97855.00;5050698;28;42254;-85
2020/12/31 11:24:35;;;;;;;6.97;5.83;;;;;;;5.96;66.01;97843.94;5150191;22;40093;-83
2020/12/31 11:27:02;;;;;;;6.60;5.67;;;;;;;6.28;65.40;97844.66;5050647;28;40874;-84
2020/12/31 11:29:29;;;;;;;6.10;5.50;;;;;;;6.40;65.28;97833.38;5066058;28;42966;-85
2020/12/31 11:31:56;;;;;;;6.53;5.93;;;;;;;6.71;65.47;97829.66;5052365;28;41596;-85
2020/12/31 11:34:24;;;;;;;7.50;5.80;;;;;;;6.92;64.50;97839.78;5068020;28;40018;-83
2020/12/31 11:36:51;;;;;;;7.33;6.57;;;;;;;7.19;63.05;97837.97;5175439;22;41709;-83
2020/12/31 11:39:18;;;;;;;7.80;7.07;;;;;;;7.26;62.53;97820.84;5072868;28;41815;-88
2020/12/31 11:41:45;;;;;;;7.47;6.40;;;;;;;7.52;61.45;97833.13;5071890;28;42717;-86
2020/12/31 11:44:12;;;;;;;6.57;5.97;;;;;;;7.73;60.29;97848.44;5072628;28;38817;-86
2020/12/31 11:46:40;;;;;;;7.63;6.33;;;;;;;7.98;60.85;97843.22;5156585;22;42096;-86
2020/12/31 11:49:07;;;;;;;7.30;6.60;;;;;;;8.18;60.43;97837.41;5053519;28;41828;-83
2020/12/31 11:51:36;;;;;;;7.80;6.33;;;;;;;8.23;59.22;97839.72;5052861;28;41845;-84
2020/12/31 11:54:03;;;;;;;8.20;7.40;;;;;;;8.13;59.76;97807.88;5068382;28;40542;-83
2020/12/31 11:56:30;;;;;;;7.37;6.53;;;;;;;8.67;59.45;97826.06;5069964;28;41329;-83
2020/12/31 11:58:57;;;;;;;7.67;6.67;;;;;;;9.39;57.71;97827.00;5146843;22;42918;-85
2020/12/31 12:01:24;;;;;;;6.67;6.00;;;;;;;9.71;55.75;97851.88;5071406;28;42402;-85
2020/12/31 12:03:52;;;;;;;7.53;6.83;;;;;;;9.96;56.86;97826.19;5072312;28;38881;-83
2020/12/31 12:06:19;;;;;;;6.73;6.13;;;;;;;9.91;56.93;97821.25;5072342;28;40632;-88
2020/12/31 12:08:47;;;;;;;7.57;6.77;;;;;;;9.69;56.74;97819.41;5073021;28;41778;-84
2020/12/31 12:11:14;;;;;;;6.90;6.20;;;;;;;9.38;56.71;97819.19;5182007;22;41224;-85
2020/12/31 12:13:52;;;;;;;7.40;6.23;;;;;;;9.03;57.32;97809.38;5070969;28;39828;-84
2020/12/31 12:16:20;;;;;;;8.03;7.23;;;;;;;8.75;57.79;97797.38;5052482;28;42364;-85
2020/12/31 12:18:47;;;;;;;8.23;7.10;;;;;;;8.44;58.35;97798.69;5069100;28;41958;-85
2020/12/31 12:21:36;;;;;;;6.90;6.23;;;;;;;8.17;58.45;97790.88;5101997;22;40991;31
2020/12/31 12:24:06;;;;;;;8.03;7.23;;;;;;;7.91;59.33;97779.50;5009275;28;40718;-85
2020/12/31 12:26:34;;;;;;;9.00;7.40;;;;;;;7.66;59.78;97766.34;5011739;28;40849;-84
2020/12/31 12:29:01;;;;;;;8.27;6.87;;;;;;;7.57;60.57;97780.13;5017328;28;42598;-87
2020/12/31 12:31:32;;;;;;;8.63;7.10;;;;;;;7.42;60.75;97774.09;5009647;28;41068;-84
2020/12/31 12:34:00;;;;;;;8.07;6.77;;;;;;;7.31;61.10;97771.34;5107038;22;39193;-84
2020/12/31 12:36:27;;;;;;;8.27;7.00;;;;;;;7.22;61.82;97762.25;5030239;28;40829;-85
2020/12/31 12:38:55;;;;;;;8.33;7.27;;;;;;;7.12;61.96;97752.44;5030774;28;43168;-86
2020/12/31 12:41:23;;;;;;;8.03;7.20;;;;;;;7.08;61.86;97766.75;5027583;28;41654;-86
2020/12/31 12:43:51;;;;;;;7.73;6.90;;;;;;;6.95;62.68;97760.59;5011083;28;40226;-87
2020/12/31 12:46:19;;;;;;;9.73;7.30;;;;;;;6.82;63.43;97755.28;5153050;22;41344;-85
2020/12/31 12:48:47;;;;;;;8.93;7.43;;;;;;;6.71;63.95;97752.50;5067834;28;41952;-88
2020/12/31 12:51:15;;;;;;;9.87;7.87;;;;;;;6.43;64.45;97735.88;5083989;28;41156;-84
2020/12/31 12:53:42;;;;;;;8.33;7.27;;;;;;;6.46;65.17;97747.97;5052578;28;39961;-84
2020/12/31 12:59:08;;;;;;;7.77;6.70;;;;;;;6.40;66.28;97727.34;5045621;28;41514;-86
2020/12/31 13:01:39;;;;;;;8.70;7.40;;;;;;;6.17;66.62;97696.41;5046917;28;42668;-86
2020/12/31 13:04:06;;;;;;;9.43;7.63;;;;;;;6.30;66.95;97737.63;5030330;28;39496;-82
2020/12/31 13:06:33;;;;;;;8.57;7.13;;;;;;;6.06;67.56;97716.31;5047668;28;41097;-91
2020/12/31 13:09:02;;;;;;;8.40;6.77;;;;;;;6.08;68.20;97726.72;5153287;22;43583;-86
2020/12/31 13:11:29;;;;;;;8.67;7.43;;;;;;;6.00;69.10;97726.38;5053381;28;42019;-82
2020/12/31 13:13:57;;;;;;;7.67;6.50;;;;;;;6.01;69.63;97726.28;5051600;28;38890;-87
2020/12/31 13:16:25;;;;;;;8.67;6.53;;;;;;;6.07;69.48;97725.88;5067004;28;41501;-84
2020/12/31 13:18:52;;;;;;;9.77;8.13;;;;;;;6.17;69.34;97730.59;5067497;28;42051;-85
2020/12/31 13:21:20;;;;;;;9.23;8.20;;;;;;;6.18;69.83;97729.66;5185688;22;42570;-86
2020/12/31 13:23:47;;;;;;;10.57;7.30;;;;;;;6.13;70.44;97709.75;5114352;27;40158;-87
2020/12/31 13:26:15;;;;;;;8.17;6.90;;;;;;;6.32;69.88;97729.59;5105538;27;42311;-86
2020/12/31 13:28:42;;;;;;;8.33;7.23;;;;;;;6.25;69.96;97708.13;5111374;27;42952;-87
2020/12/31 13:33:58;;;;;;;8.67;7.73;;;;;;;6.60;70.05;97726.06;5022905;28;39396;-86
2020/12/31 13:36:26;;;;;;;11.00;7.90;;;;;;;6.64;69.70;97725.78;5026417;28;41666;-83
2020/12/31 13:38:54;;;;;;;8.90;7.23;;;;;;;6.22;69.71;97675.91;5027252;28;43603;-84
2020/12/31 13:41:21;;;;;;;9.33;7.47;;;;;;;6.46;70.28;97725.16;5016220;28;42048;-83
2020/12/31 13:43:48;;;;;;;10.23;8.03;;;;;;;6.42;69.90;97730.72;5132324;22;39677;-84
2020/12/31 13:46:16;;;;;;;8.10;7.27;;;;;;;6.23;70.26;97709.16;5047185;28;43112;-84
2020/12/31 13:48:44;;;;;;;9.40;7.13;;;;;;;6.28;70.44;97722.88;5049339;28;43658;-86
2020/12/31 13:51:13;;;;;;;7.80;7.00;;;;;;;6.07;70.61;97694.34;5069335;28;42884;-83
2020/12/31 13:53:42;;;;;;;7.57;6.70;;;;;;;6.18;70.59;97719.13;5087396;28;40637;-87
2020/12/31 13:56:09;;;;;;;9.70;7.10;;;;;;;6.12;70.91;97718.56;5169915;22;41832;-82
2020/12/31 13:58:36;;;;;;;7.83;6.87;;;;;;;5.97;71.09;97702.91;5074186;28;42585;-87
2020/12/31 14:01:04;;;;;;;7.73;6.97;;;;;;;6.02;71.24;97727.13;5056246;28;40522;-85
2020/12/31 14:03:31;;;;;;;8.20;6.93;;;;;;;5.81;71.63;97713.47;5089066;28;40309;-83
2020/12/31 14:08:41;;;;;;;8.50;6.40;;;;;;;5.54;72.05;97704.69;5048597;28;42569;-85
2020/12/31 14:11:11;;;;;;;7.67;6.30;;;;;;;5.59;72.58;97723.63;5031440;28;41319;-84
2020/12/31 14:13:39;;;;;;;14.67;10.57;;;;;;;5.53;72.53;97721.38;5050896;28;40411;-83
2020/12/31 14:16:06;;;;;;;8.27;7.33;;;;;;;5.51;72.91;97720.63;5036654;28;40769;-83
2020/12/31 14:18:33;;;;;;;6.80;5.70;;;;;;;5.46;72.82;97717.41;5160530;22;42525;-83
2020/12/31 14:21:01;;;;;;;8.73;7.77;;;;;;;5.29;73.25;97706.16;5093361;28;42226;-82
2020/12/31 14:23:28;;;;;;;12.23;8.40;;;;;;;5.41;73.51;97725.59;5094085;28;39258;-85
2020/12/31 14:25:57;;;;;;;8.47;7.17;;;;;;;5.04;73.20;97671.81;5093877;28;42047;-84
2020/12/31 14:28:24;;;;;;;12.40;7.03;;;;;;;5.35;73.58;97726.78;5091165;28;42673;-83
2020/12/31 14:30:51;;;;;;;6.60;5.80;;;;;;;5.31;73.51;97719.19;5170995;22;42470;-87
2020/12/31 14:33:18;;;;;;;8.13;7.20;;;;;;;5.24;73.85;97710.81;5110765;28;41392;-86
2020/12/31 14:35:45;;;;;;;8.43;6.63;;;;;;;5.32;74.01;97720.84;5092551;28;40581;-86
2020/12/31 14:38:13;;;;;;;7.43;6.50;;;;;;;5.36;74.01;97722.38;5110047;28;42476;-85
2020/12/31 14:40:40;;;;;;;7.77;6.47;;;;;;;5.23;74.21;97705.66;5093521;28;42685;-84
2020/12/31 14:43:10;;;;;;;7.83;6.87;;;;;;;5.34;74.50;97722.47;5164277;22;40225;-86
2020/12/31 14:45:47;;;;;;;7.63;6.83;;;;;;;5.09;74.67;97697.75;5069886;28;40728;-84
2020/12/31 14:48:15;;;;;;;6.73;5.97;;;;;;;5.01;75.05;97700.84;5052886;28;41913;-85
2020/12/31 14:50:42;;;;;;;6.90;6.20;;;;;;;5.01;75.71;97711.34;5053317;28;41263;-83
2020/12/31 14:53:09;;;;;;;9.07;7.00;;;;;;;5.07;75.79;97729.31;5144292;22;40217;-83
2020/12/31 14:55:36;;;;;;;8.67;6.97;;;;;;;4.97;76.05;97715.91;5073907;28;40223;-86
2020/12/31 14:58:03;;;;;;;11.83;7.20;;;;;;;4.99;76.22;97728.94;5089196;28;43379;-84
2020/12/31 15:00:32;;;;;;;6.83;6.10;;;;;;;4.94;75.86;97723.13;5072222;28;42551;-84
2020/12/31 15:02:59;;;;;;;9.30;6.03;;;;;;;4.92;76.14;97722.38;5072928;28;38926;-86
2020/12/31 15:05:26;;;;;;;7.10;6.40;;;;;;;4.96;75.93;97735.19;5179780;22;41566;-82
2020/12/31 15:07:54;;;;;;;6.80;6.03;;;;;;;4.93;76.42;97727.53;5073207;28;42100;-82
2020/12/31 15:10:21;;;;;;;7.10;6.33;;;;;;;4.83;76.17;97723.72;5085680;28;42461;-83
2020/12/31 15:12:48;;;;;;;6.90;5.83;;;;;;;4.89;76.45;97733.03;5089689;28;41977;-83
2020/12/31 15:15:16;;;;;;;9.57;6.47;;;;;;;4.87;76.48;97734.91;5071575;28;40840;-85
2020/12/31 15:17:44;;;;;;;8.00;6.57;;;;;;;4.88;76.63;97733.97;5283529;22;42541;-85
2020/12/31 15:20:12;;;;;;;10.73;6.40;;;;;;;4.81;77.09;97723.00;5090258;28;42222;-85
2020/12/31 15:22:39;;;;;;;11.80;6.30;;;;;;;4.71;77.02;97708.69;5073273;28;39249;-85
2020/12/31 15:25:08;;;;;;;9.53;5.97;;;;;;;4.72;77.07;97717.41;5073192;28;40668;-85
2020/12/31 15:27:35;;;;;;;7.07;6.10;;;;;;;4.70;76.89;97710.47;5072740;28;44440;-85
2020/12/31 15:30:02;;;;;;;7.03;6.37;;;;;;;4.68;77.24;97717.59;5195118;22;42191;-85
2020/12/31 15:32:29;;;;;;;7.80;6.20;;;;;;;4.67;76.90;97713.28;5072769;28;38810;-85
2020/12/31 15:34:58;;;;;;;7.97;6.37;;;;;;;4.67;76.95;97708.03;5073194;28;40769;-85
2020/12/31 15:37:25;;;;;;;6.63;5.93;;;;;;;4.75;77.08;97725.09;5073177;28;42667;-84
2020/12/31 15:42:39;;;;;;;8.70;7.10;;;;;;;4.72;77.13;97726.13;5027429;28;39309;-85
2020/12/31 15:45:08;;;;;;;9.40;7.47;;;;;;;4.70;77.18;97728.81;5013109;28;40920;-85
2020/12/31 15:47:35;;;;;;;8.13;6.63;;;;;;;4.70;77.21;97733.22;5012627;28;42890;-85
2020/12/31 15:50:05;;;;;;;12.03;7.60;;;;;;;4.50;77.41;97699.44;5037642;28;42973;-85
2020/12/31 15:52:32;;;;;;;7.20;6.50;;;;;;;4.63;77.20;97717.00;5144719;22;39698;-85
2020/12/31 15:55:00;;;;;;;8.07;7.27;;;;;;;4.67;77.12;97718.53;5072419;28;40604;-84
2020/12/31 15:57:28;;;;;;;8.03;6.57;;;;;;;4.78;76.95;97730.19;5089665;28;42797;-84
2020/12/31 15:59:55;;;;;;;8.47;6.03;;;;;;;4.83;76.60;97734.22;5072602;28;41192;-84
2020/12/31 16:02:22;;;;;;;7.87;7.00;;;;;;;4.79;76.56;97724.84;5088739;28;40119;-85
2020/12/31 16:04:49;;;;;;;11.20;7.57;;;;;;;4.82;77.02;97731.72;5144292;22;40973;-85
2020/12/31 16:07:17;;;;;;;9.40;6.70;;;;;;;4.81;76.90;97730.00;5047883;28;43142;-83
2020/12/31 16:09:44;;;;;;;10.87;6.73;;;;;;;4.83;76.79;97722.88;5045958;28;42204;-85
2020/12/31 16:12:12;;;;;;;9.93;7.13;;;;;;;4.73;77.17;97708.59;5031690;28;39040;-85
2020/12/31 16:17:40;;;;;;;9.20;8.30;;;;;;;4.72;77.40;97706.91;5028211;28;43082;-84
2020/12/31 16:20:09;;;;;;;11.30;9.63;;;;;;;4.79;77.16;97717.00;5011755;28;41543;-84
2020/12/31 16:22:37;;;;;;;12.27;9.47;;;;;;;4.69;77.44;97695.69;5028606;28;39058;-85
2020/12/31 16:25:06;;;;;;;11.10;8.70;;;;;;;4.67;77.24;97697.56;5092223;22;40711;-83
2020/12/31 16:27:35;;;;;;;12.77;10.03;;;;;;;4.66;77.45;97698.50;5157883;22;40572;-81
2020/12/31 16:30:05;;;;;;;12.07;9.20;;;;;;;4.62;77.38;97694.34;5070643;28;41399;-84
2020/12/31 16:32:32;;;;;;;11.83;9.73;;;;;;;4.69;77.37;97710.59;5072397;28;39134;-83
2020/12/31 16:34:59;;;;;;;12.13;9.73;;;;;;;4.70;77.38;97707.84;5088074;28;40871;-84
2020/12/31 16:37:26;;;;;;;14.37;11.27;;;;;;;4.59;77.34;97693.66;5071486;28;41889;-84
2020/12/31 16:39:54;;;;;;;13.23;11.73;;;;;;;4.60;77.46;97704.06;5144435;22;41848;-82
2020/12/31 16:42:23;;;;;;;11.63;8.77;;;;;;;4.48;77.39;97686.41;5016551;28;39665;-81
2020/12/31 16:44:52;;;;;;;13.20;9.70;;;;;;;4.40;77.83;97687.78;5006234;28;40139;-82
2020/12/31 16:47:19;;;;;;;12.50;8.63;;;;;;;4.31;78.15;97695.25;5028812;28;42357;-87
